Pittsburgh, Pennsylvania
Traffic Map
Current Weather Conditions
Pittsburgh, Pennsylvania
Clear
Clear
-11°
Feels Like: -11°
Wind Chill: -11° Ceiling: Unl
Heat Index: -11° Visibility: 10mi
Dew Point: -21° Wind: 3mph
Humidity: 46% Direction: 320° (NW)
Pressure: 30.58in Gusts: 0mph
Raw Report DataKAGC 280153Z 32003KT 10SM CLR M11/M21 A3058 RMK AO2 SLP388 T11111206
Traffic Incident Summary
Active as of:
Severity:
Category:
InformationThere was an issue retrieving the traffic information for this location. Please try a different location or try again shortly.
Advertisements
Track Severe Weather on mobile